sensor_id;sensor_type;location;lat;lon;timestamp;P1;durP1;ratioP1;P2;durP2;ratioP2
75620;SDS011;64574;48.506;-2.750;2023-04-16T00:02:06;4.97;;;3.50;;
75620;SDS011;64574;48.506;-2.750;2023-04-16T00:04:31;5.40;;;3.30;;
75620;SDS011;64574;48.506;-2.750;2023-04-16T00:06:57;8.43;;;3.90;;
75620;SDS011;64574;48.506;-2.750;2023-04-16T00:09:22;5.40;;;3.45;;
75620;SDS011;64574;48.506;-2.750;2023-04-16T00:11:48;7.53;;;3.78;;
75620;SDS011;64574;48.506;-2.750;2023-04-16T00:14:13;4.18;;;3.15;;
75620;SDS011;64574;48.506;-2.750;2023-04-16T00:16:39;6.03;;;3.22;;
75620;SDS011;64574;48.506;-2.750;2023-04-16T00:19:05;5.68;;;3.38;;
75620;SDS011;64574;48.506;-2.750;2023-04-16T00:21:31;7.65;;;3.28;;
75620;SDS011;64574;48.506;-2.750;2023-04-16T00:23:56;5.22;;;3.65;;
75620;SDS011;64574;48.506;-2.750;2023-04-16T00:26:22;8.95;;;3.63;;
75620;SDS011;64574;48.506;-2.750;2023-04-16T00:28:47;7.35;;;3.80;;
75620;SDS011;64574;48.506;-2.750;2023-04-16T00:31:13;7.57;;;3.60;;
75620;SDS011;64574;48.506;-2.750;2023-04-16T00:33:39;6.35;;;4.00;;
75620;SDS011;64574;48.506;-2.750;2023-04-16T00:36:05;8.45;;;3.65;;
75620;SDS011;64574;48.506;-2.750;2023-04-16T00:38:31;6.05;;;3.50;;
75620;SDS011;64574;48.506;-2.750;2023-04-16T00:40:57;8.10;;;3.10;;
75620;SDS011;64574;48.506;-2.750;2023-04-16T00:43:23;7.95;;;4.25;;
75620;SDS011;64574;48.506;-2.750;2023-04-16T00:45:50;7.57;;;3.53;;
75620;SDS011;64574;48.506;-2.750;2023-04-16T00:48:18;6.65;;;3.55;;
75620;SDS011;64574;48.506;-2.750;2023-04-16T00:50:44;8.40;;;3.88;;
75620;SDS011;64574;48.506;-2.750;2023-04-16T00:53:10;6.15;;;4.28;;
75620;SDS011;64574;48.506;-2.750;2023-04-16T00:55:38;7.95;;;3.92;;
75620;SDS011;64574;48.506;-2.750;2023-04-16T00:58:04;11.23;;;4.05;;
75620;SDS011;64574;48.506;-2.750;2023-04-16T01:00:30;6.55;;;3.83;;
75620;SDS011;64574;48.506;-2.750;2023-04-16T01:02:56;8.75;;;4.53;;
75620;SDS011;64574;48.506;-2.750;2023-04-16T01:05:22;10.95;;;5.05;;
75620;SDS011;64574;48.506;-2.750;2023-04-16T01:07:48;9.55;;;4.40;;
75620;SDS011;64574;48.506;-2.750;2023-04-16T01:10:15;9.60;;;4.78;;
75620;SDS011;64574;48.506;-2.750;2023-04-16T01:12:40;8.43;;;4.07;;
75620;SDS011;64574;48.506;-2.750;2023-04-16T01:15:06;6.95;;;3.65;;
75620;SDS011;64574;48.506;-2.750;2023-04-16T01:17:32;6.80;;;3.20;;
75620;SDS011;64574;48.506;-2.750;2023-04-16T01:19:58;8.10;;;3.33;;
75620;SDS011;64574;48.506;-2.750;2023-04-16T01:22:25;8.95;;;3.70;;
75620;SDS011;64574;48.506;-2.750;2023-04-16T01:24:53;8.10;;;3.30;;
75620;SDS011;64574;48.506;-2.750;2023-04-16T01:27:19;6.13;;;3.33;;
75620;SDS011;64574;48.506;-2.750;2023-04-16T01:29:45;6.78;;;3.80;;
75620;SDS011;64574;48.506;-2.750;2023-04-16T01:32:10;7.43;;;3.50;;
75620;SDS011;64574;48.506;-2.750;2023-04-16T01:34:36;6.30;;;3.63;;
75620;SDS011;64574;48.506;-2.750;2023-04-16T01:37:02;8.90;;;3.35;;
75620;SDS011;64574;48.506;-2.750;2023-04-16T01:39:28;7.43;;;3.85;;
75620;SDS011;64574;48.506;-2.750;2023-04-16T01:41:53;7.22;;;3.75;;
75620;SDS011;64574;48.506;-2.750;2023-04-16T01:44:19;7.28;;;3.88;;
75620;SDS011;64574;48.506;-2.750;2023-04-16T01:46:45;6.68;;;3.45;;
75620;SDS011;64574;48.506;-2.750;2023-04-16T01:49:11;6.43;;;3.75;;
75620;SDS011;64574;48.506;-2.750;2023-04-16T01:51:37;5.55;;;3.83;;
75620;SDS011;64574;48.506;-2.750;2023-04-16T01:54:02;6.15;;;4.13;;
75620;SDS011;64574;48.506;-2.750;2023-04-16T01:56:28;5.43;;;3.63;;
75620;SDS011;64574;48.506;-2.750;2023-04-16T01:58:54;8.10;;;4.03;;
75620;SDS011;64574;48.506;-2.750;2023-04-16T02:01:19;6.70;;;3.67;;
75620;SDS011;64574;48.506;-2.750;2023-04-16T02:03:45;8.63;;;4.00;;
75620;SDS011;64574;48.506;-2.750;2023-04-16T02:06:11;7.13;;;3.50;;
75620;SDS011;64574;48.506;-2.750;2023-04-16T02:08:37;5.47;;;3.28;;
75620;SDS011;64574;48.506;-2.750;2023-04-16T02:11:03;6.95;;;3.38;;
75620;SDS011;64574;48.506;-2.750;2023-04-16T02:13:28;7.85;;;3.47;;
75620;SDS011;64574;48.506;-2.750;2023-04-16T02:15:54;8.00;;;3.60;;
75620;SDS011;64574;48.506;-2.750;2023-04-16T02:18:20;7.78;;;3.53;;
75620;SDS011;64574;48.506;-2.750;2023-04-16T02:20:45;6.50;;;3.38;;
75620;SDS011;64574;48.506;-2.750;2023-04-16T02:23:12;7.30;;;3.85;;
75620;SDS011;64574;48.506;-2.750;2023-04-16T02:25:39;8.15;;;4.10;;
75620;SDS011;64574;48.506;-2.750;2023-04-16T02:28:07;4.93;;;3.50;;
75620;SDS011;64574;48.506;-2.750;2023-04-16T02:30:33;6.47;;;3.90;;
75620;SDS011;64574;48.506;-2.750;2023-04-16T02:33:02;5.85;;;3.50;;
75620;SDS011;64574;48.506;-2.750;2023-04-16T02:35:31;7.03;;;4.03;;
75620;SDS011;64574;48.506;-2.750;2023-04-16T02:38:00;6.43;;;4.07;;
75620;SDS011;64574;48.506;-2.750;2023-04-16T02:40:26;7.68;;;4.00;;
75620;SDS011;64574;48.506;-2.750;2023-04-16T02:42:52;10.13;;;4.15;;
75620;SDS011;64574;48.506;-2.750;2023-04-16T02:45:19;6.25;;;3.83;;
75620;SDS011;64574;48.506;-2.750;2023-04-16T02:47:45;8.23;;;3.55;;
75620;SDS011;64574;48.506;-2.750;2023-04-16T02:50:11;5.57;;;3.33;;
75620;SDS011;64574;48.506;-2.750;2023-04-16T02:52:37;7.30;;;3.35;;
75620;SDS011;64574;48.506;-2.750;2023-04-16T02:55:03;5.55;;;3.33;;
75620;SDS011;64574;48.506;-2.750;2023-04-16T02:57:29;5.38;;;3.33;;
75620;SDS011;64574;48.506;-2.750;2023-04-16T02:59:55;7.70;;;3.28;;
75620;SDS011;64574;48.506;-2.750;2023-04-16T03:02:20;6.72;;;3.70;;
75620;SDS011;64574;48.506;-2.750;2023-04-16T03:04:46;7.10;;;3.95;;
75620;SDS011;64574;48.506;-2.750;2023-04-16T03:07:11;8.80;;;3.97;;
75620;SDS011;64574;48.506;-2.750;2023-04-16T03:09:37;8.18;;;3.85;;
75620;SDS011;64574;48.506;-2.750;2023-04-16T03:12:03;8.57;;;3.83;;
75620;SDS011;64574;48.506;-2.750;2023-04-16T03:14:29;5.90;;;3.83;;
75620;SDS011;64574;48.506;-2.750;2023-04-16T03:16:56;7.45;;;3.75;;
75620;SDS011;64574;48.506;-2.750;2023-04-16T03:19:22;7.88;;;4.20;;
75620;SDS011;64574;48.506;-2.750;2023-04-16T03:21:48;6.32;;;3.90;;
75620;SDS011;64574;48.506;-2.750;2023-04-16T03:24:13;7.47;;;4.53;;
75620;SDS011;64574;48.506;-2.750;2023-04-16T03:26:39;6.57;;;4.22;;
75620;SDS011;64574;48.506;-2.750;2023-04-16T03:29:04;7.45;;;3.65;;
75620;SDS011;64574;48.506;-2.750;2023-04-16T03:31:30;6.95;;;4.28;;
75620;SDS011;64574;48.506;-2.750;2023-04-16T03:33:56;6.50;;;4.30;;
75620;SDS011;64574;48.506;-2.750;2023-04-16T03:36:21;6.13;;;4.00;;
75620;SDS011;64574;48.506;-2.750;2023-04-16T03:38:47;7.10;;;4.10;;
75620;SDS011;64574;48.506;-2.750;2023-04-16T03:41:13;8.93;;;4.32;;
75620;SDS011;64574;48.506;-2.750;2023-04-16T03:43:39;10.40;;;4.38;;
75620;SDS011;64574;48.506;-2.750;2023-04-16T03:46:05;5.63;;;3.80;;
75620;SDS011;64574;48.506;-2.750;2023-04-16T03:48:30;7.47;;;4.00;;
75620;SDS011;64574;48.506;-2.750;2023-04-16T03:50:56;8.73;;;3.75;;
75620;SDS011;64574;48.506;-2.750;2023-04-16T03:53:22;7.32;;;3.88;;
75620;SDS011;64574;48.506;-2.750;2023-04-16T03:55:48;8.23;;;3.88;;
75620;SDS011;64574;48.506;-2.750;2023-04-16T03:58:18;7.50;;;4.32;;
75620;SDS011;64574;48.506;-2.750;2023-04-16T04:00:44;6.93;;;4.25;;
75620;SDS011;64574;48.506;-2.750;2023-04-16T04:03:10;9.65;;;4.10;;
75620;SDS011;64574;48.506;-2.750;2023-04-16T04:05:36;8.63;;;4.28;;
75620;SDS011;64574;48.506;-2.750;2023-04-16T04:10:30;8.18;;;4.03;;
75620;SDS011;64574;48.506;-2.750;2023-04-16T04:13:00;9.80;;;4.28;;
75620;SDS011;64574;48.506;-2.750;2023-04-16T04:15:30;14.43;;;4.82;;
75620;SDS011;64574;48.506;-2.750;2023-04-16T04:17:56;7.68;;;4.28;;
75620;SDS011;64574;48.506;-2.750;2023-04-16T04:20:22;6.35;;;3.80;;
75620;SDS011;64574;48.506;-2.750;2023-04-16T04:22:48;6.15;;;4.05;;
75620;SDS011;64574;48.506;-2.750;2023-04-16T04:25:15;10.43;;;3.72;;
75620;SDS011;64574;48.506;-2.750;2023-04-16T04:27:41;6.13;;;4.13;;
75620;SDS011;64574;48.506;-2.750;2023-04-16T04:30:07;8.93;;;4.70;;
75620;SDS011;64574;48.506;-2.750;2023-04-16T04:32:33;7.03;;;3.80;;
75620;SDS011;64574;48.506;-2.750;2023-04-16T04:34:59;6.93;;;3.85;;
75620;SDS011;64574;48.506;-2.750;2023-04-16T04:39:51;8.80;;;3.50;;
75620;SDS011;64574;48.506;-2.750;2023-04-16T04:42:17;6.78;;;3.72;;
75620;SDS011;64574;48.506;-2.750;2023-04-16T04:44:43;9.80;;;4.07;;
75620;SDS011;64574;48.506;-2.750;2023-04-16T04:47:09;6.68;;;3.95;;
75620;SDS011;64574;48.506;-2.750;2023-04-16T04:49:35;7.13;;;3.90;;
75620;SDS011;64574;48.506;-2.750;2023-04-16T04:52:00;8.82;;;4.03;;
75620;SDS011;64574;48.506;-2.750;2023-04-16T04:54:29;7.45;;;3.88;;
75620;SDS011;64574;48.506;-2.750;2023-04-16T04:56:56;6.32;;;4.10;;
75620;SDS011;64574;48.506;-2.750;2023-04-16T04:59:22;6.60;;;4.18;;
75620;SDS011;64574;48.506;-2.750;2023-04-16T05:01:48;8.80;;;4.00;;
75620;SDS011;64574;48.506;-2.750;2023-04-16T05:04:14;6.57;;;3.42;;
75620;SDS011;64574;48.506;-2.750;2023-04-16T05:06:40;8.40;;;4.40;;
75620;SDS011;64574;48.506;-2.750;2023-04-16T05:09:06;7.13;;;3.65;;
75620;SDS011;64574;48.506;-2.750;2023-04-16T05:11:35;7.97;;;4.03;;
75620;SDS011;64574;48.506;-2.750;2023-04-16T05:14:05;11.27;;;3.80;;
75620;SDS011;64574;48.506;-2.750;2023-04-16T05:16:30;8.07;;;4.00;;
75620;SDS011;64574;48.506;-2.750;2023-04-16T05:18:56;6.35;;;3.75;;
75620;SDS011;64574;48.506;-2.750;2023-04-16T05:21:22;6.95;;;3.47;;
75620;SDS011;64574;48.506;-2.750;2023-04-16T05:23:48;6.57;;;3.97;;
75620;SDS011;64574;48.506;-2.750;2023-04-16T05:26:13;5.47;;;3.40;;
75620;SDS011;64574;48.506;-2.750;2023-04-16T05:28:39;7.85;;;3.38;;
75620;SDS011;64574;48.506;-2.750;2023-04-16T05:31:05;7.32;;;3.55;;
75620;SDS011;64574;48.506;-2.750;2023-04-16T05:33:30;4.88;;;3.28;;
75620;SDS011;64574;48.506;-2.750;2023-04-16T05:35:56;6.85;;;3.50;;
75620;SDS011;64574;48.506;-2.750;2023-04-16T05:38:21;5.43;;;3.40;;
75620;SDS011;64574;48.506;-2.750;2023-04-16T05:40:47;7.32;;;3.55;;
75620;SDS011;64574;48.506;-2.750;2023-04-16T05:43:13;5.78;;;3.15;;
75620;SDS011;64574;48.506;-2.750;2023-04-16T05:45:38;8.23;;;3.65;;
75620;SDS011;64574;48.506;-2.750;2023-04-16T05:48:06;7.18;;;3.80;;
75620;SDS011;64574;48.506;-2.750;2023-04-16T05:50:33;5.53;;;3.72;;
75620;SDS011;64574;48.506;-2.750;2023-04-16T05:52:59;6.18;;;3.70;;
75620;SDS011;64574;48.506;-2.750;2023-04-16T05:55:26;6.38;;;3.20;;
75620;SDS011;64574;48.506;-2.750;2023-04-16T05:57:52;7.20;;;3.38;;
75620;SDS011;64574;48.506;-2.750;2023-04-16T06:00:17;7.22;;;3.47;;
75620;SDS011;64574;48.506;-2.750;2023-04-16T06:02:43;7.93;;;3.35;;
75620;SDS011;64574;48.506;-2.750;2023-04-16T06:05:08;6.65;;;3.13;;
75620;SDS011;64574;48.506;-2.750;2023-04-16T06:07:34;5.28;;;3.33;;
75620;SDS011;64574;48.506;-2.750;2023-04-16T06:10:00;7.90;;;3.58;;
75620;SDS011;64574;48.506;-2.750;2023-04-16T06:12:25;5.78;;;3.15;;
75620;SDS011;64574;48.506;-2.750;2023-04-16T06:14:51;6.55;;;3.03;;
75620;SDS011;64574;48.506;-2.750;2023-04-16T06:17:17;7.15;;;3.78;;
75620;SDS011;64574;48.506;-2.750;2023-04-16T06:19:43;5.53;;;3.58;;
75620;SDS011;64574;48.506;-2.750;2023-04-16T06:22:09;6.03;;;3.22;;
75620;SDS011;64574;48.506;-2.750;2023-04-16T06:24:35;7.82;;;3.33;;
75620;SDS011;64574;48.506;-2.750;2023-04-16T06:27:01;7.28;;;3.67;;
75620;SDS011;64574;48.506;-2.750;2023-04-16T06:29:27;8.02;;;3.97;;
75620;SDS011;64574;48.506;-2.750;2023-04-16T06:31:53;5.35;;;3.67;;
75620;SDS011;64574;48.506;-2.750;2023-04-16T06:34:19;7.30;;;4.10;;
75620;SDS011;64574;48.506;-2.750;2023-04-16T06:36:44;6.25;;;3.90;;
75620;SDS011;64574;48.506;-2.750;2023-04-16T06:39:10;5.78;;;3.42;;
75620;SDS011;64574;48.506;-2.750;2023-04-16T06:41:36;7.20;;;3.97;;
75620;SDS011;64574;48.506;-2.750;2023-04-16T06:44:01;5.82;;;2.85;;
75620;SDS011;64574;48.506;-2.750;2023-04-16T06:46:27;6.22;;;3.17;;
75620;SDS011;64574;48.506;-2.750;2023-04-16T06:48:53;6.50;;;2.72;;
75620;SDS011;64574;48.506;-2.750;2023-04-16T06:51:18;5.95;;;3.20;;
75620;SDS011;64574;48.506;-2.750;2023-04-16T06:53:44;5.57;;;3.40;;
75620;SDS011;64574;48.506;-2.750;2023-04-16T06:56:10;7.53;;;3.13;;
75620;SDS011;64574;48.506;-2.750;2023-04-16T06:58:35;5.95;;;2.88;;
75620;SDS011;64574;48.506;-2.750;2023-04-16T07:01:01;4.88;;;2.78;;
75620;SDS011;64574;48.506;-2.750;2023-04-16T07:03:27;4.63;;;2.83;;
75620;SDS011;64574;48.506;-2.750;2023-04-16T07:05:52;6.38;;;3.05;;
75620;SDS011;64574;48.506;-2.750;2023-04-16T07:08:18;6.53;;;3.35;;
75620;SDS011;64574;48.506;-2.750;2023-04-16T07:10:43;5.32;;;2.70;;
75620;SDS011;64574;48.506;-2.750;2023-04-16T07:13:09;6.68;;;2.72;;
75620;SDS011;64574;48.506;-2.750;2023-04-16T07:15:34;3.97;;;2.80;;
75620;SDS011;64574;48.506;-2.750;2023-04-16T07:18:00;4.95;;;2.60;;
75620;SDS011;64574;48.506;-2.750;2023-04-16T07:20:26;4.70;;;2.58;;
75620;SDS011;64574;48.506;-2.750;2023-04-16T07:22:51;7.68;;;2.60;;
75620;SDS011;64574;48.506;-2.750;2023-04-16T07:25:17;7.40;;;3.05;;
75620;SDS011;64574;48.506;-2.750;2023-04-16T07:27:43;4.43;;;2.67;;
75620;SDS011;64574;48.506;-2.750;2023-04-16T07:30:08;6.28;;;2.67;;
75620;SDS011;64574;48.506;-2.750;2023-04-16T07:32:34;5.22;;;2.75;;
75620;SDS011;64574;48.506;-2.750;2023-04-16T07:35:00;4.60;;;2.60;;
75620;SDS011;64574;48.506;-2.750;2023-04-16T07:37:27;6.25;;;2.97;;
75620;SDS011;64574;48.506;-2.750;2023-04-16T07:39:53;9.20;;;2.92;;
75620;SDS011;64574;48.506;-2.750;2023-04-16T07:42:22;4.38;;;2.50;;
75620;SDS011;64574;48.506;-2.750;2023-04-16T07:44:48;6.30;;;2.88;;
75620;SDS011;64574;48.506;-2.750;2023-04-16T07:47:13;10.07;;;2.83;;
75620;SDS011;64574;48.506;-2.750;2023-04-16T07:49:39;3.47;;;2.30;;
75620;SDS011;64574;48.506;-2.750;2023-04-16T07:52:05;4.65;;;2.08;;
75620;SDS011;64574;48.506;-2.750;2023-04-16T07:54:31;2.85;;;1.88;;
75620;SDS011;64574;48.506;-2.750;2023-04-16T07:56:56;5.00;;;2.10;;
75620;SDS011;64574;48.506;-2.750;2023-04-16T07:59:22;3.53;;;2.00;;
75620;SDS011;64574;48.506;-2.750;2023-04-16T08:01:48;5.55;;;2.20;;
75620;SDS011;64574;48.506;-2.750;2023-04-16T08:04:13;4.30;;;2.30;;
75620;SDS011;64574;48.506;-2.750;2023-04-16T08:09:06;5.55;;;1.70;;
75620;SDS011;64574;48.506;-2.750;2023-04-16T08:11:32;3.42;;;1.77;;
75620;SDS011;64574;48.506;-2.750;2023-04-16T08:13:58;5.53;;;2.13;;
75620;SDS011;64574;48.506;-2.750;2023-04-16T08:16:24;2.67;;;1.73;;
75620;SDS011;64574;48.506;-2.750;2023-04-16T08:18:49;5.57;;;1.88;;
75620;SDS011;64574;48.506;-2.750;2023-04-16T08:21:15;4.57;;;2.13;;
75620;SDS011;64574;48.506;-2.750;2023-04-16T08:23:41;5.65;;;1.98;;
75620;SDS011;64574;48.506;-2.750;2023-04-16T08:26:06;3.22;;;1.85;;
75620;SDS011;64574;48.506;-2.750;2023-04-16T08:28:32;3.95;;;2.00;;
75620;SDS011;64574;48.506;-2.750;2023-04-16T08:30:57;4.25;;;1.67;;
75620;SDS011;64574;48.506;-2.750;2023-04-16T08:33:23;4.18;;;1.48;;
75620;SDS011;64574;48.506;-2.750;2023-04-16T08:35:49;4.40;;;1.63;;
75620;SDS011;64574;48.506;-2.750;2023-04-16T08:38:14;6.03;;;1.90;;
75620;SDS011;64574;48.506;-2.750;2023-04-16T08:40:40;2.85;;;1.40;;
75620;SDS011;64574;48.506;-2.750;2023-04-16T08:43:09;2.50;;;1.25;;
75620;SDS011;64574;48.506;-2.750;2023-04-16T08:45:37;3.20;;;1.75;;
75620;SDS011;64574;48.506;-2.750;2023-04-16T08:48:06;3.97;;;1.70;;
75620;SDS011;64574;48.506;-2.750;2023-04-16T08:50:32;2.25;;;1.20;;
75620;SDS011;64574;48.506;-2.750;2023-04-16T08:52:59;2.47;;;1.38;;
75620;SDS011;64574;48.506;-2.750;2023-04-16T08:55:37;2.95;;;1.45;;
75620;SDS011;64574;48.506;-2.750;2023-04-16T09:00:37;1.92;;;1.00;;
75620;SDS011;64574;48.506;-2.750;2023-04-16T09:03:04;3.25;;;1.17;;
75620;SDS011;64574;48.506;-2.750;2023-04-16T09:05:31;3.53;;;1.17;;
75620;SDS011;64574;48.506;-2.750;2023-04-16T09:07:57;2.58;;;1.30;;
75620;SDS011;64574;48.506;-2.750;2023-04-16T09:10:24;2.75;;;1.38;;
75620;SDS011;64574;48.506;-2.750;2023-04-16T09:12:51;2.85;;;1.30;;
75620;SDS011;64574;48.506;-2.750;2023-04-16T09:15:19;2.85;;;1.40;;
75620;SDS011;64574;48.506;-2.750;2023-04-16T09:17:45;2.83;;;1.38;;
75620;SDS011;64574;48.506;-2.750;2023-04-16T09:20:11;2.33;;;1.10;;
75620;SDS011;64574;48.506;-2.750;2023-04-16T09:22:37;2.17;;;1.13;;
75620;SDS011;64574;48.506;-2.750;2023-04-16T09:25:06;3.67;;;1.30;;
75620;SDS011;64574;48.506;-2.750;2023-04-16T09:27:32;2.47;;;1.08;;
75620;SDS011;64574;48.506;-2.750;2023-04-16T09:29:58;2.95;;;1.10;;
75620;SDS011;64574;48.506;-2.750;2023-04-16T09:32:27;2.92;;;1.10;;
75620;SDS011;64574;48.506;-2.750;2023-04-16T09:34:57;2.60;;;1.08;;
75620;SDS011;64574;48.506;-2.750;2023-04-16T09:37:27;2.75;;;1.15;;
75620;SDS011;64574;48.506;-2.750;2023-04-16T09:40:00;3.13;;;1.02;;
75620;SDS011;64574;48.506;-2.750;2023-04-16T09:42:34;2.50;;;1.05;;
75620;SDS011;64574;48.506;-2.750;2023-04-16T09:45:01;1.95;;;1.15;;
75620;SDS011;64574;48.506;-2.750;2023-04-16T09:47:40;2.05;;;0.90;;
75620;SDS011;64574;48.506;-2.750;2023-04-16T09:50:08;2.58;;;1.00;;
75620;SDS011;64574;48.506;-2.750;2023-04-16T09:52:38;2.45;;;1.05;;
75620;SDS011;64574;48.506;-2.750;2023-04-16T09:55:04;2.05;;;1.05;;
75620;SDS011;64574;48.506;-2.750;2023-04-16T09:57:30;2.05;;;0.90;;
75620;SDS011;64574;48.506;-2.750;2023-04-16T10:00:02;2.95;;;1.30;;
75620;SDS011;64574;48.506;-2.750;2023-04-16T10:02:30;2.33;;;0.98;;
75620;SDS011;64574;48.506;-2.750;2023-04-16T10:04:57;1.90;;;0.93;;
75620;SDS011;64574;48.506;-2.750;2023-04-16T10:07:32;2.65;;;1.10;;
75620;SDS011;64574;48.506;-2.750;2023-04-16T10:09:58;3.97;;;1.20;;
75620;SDS011;64574;48.506;-2.750;2023-04-16T10:12:24;4.90;;;1.20;;
75620;SDS011;64574;48.506;-2.750;2023-04-16T10:14:51;3.97;;;1.27;;
75620;SDS011;64574;48.506;-2.750;2023-04-16T10:17:16;3.85;;;1.20;;
75620;SDS011;64574;48.506;-2.750;2023-04-16T10:19:43;2.55;;;1.25;;
75620;SDS011;64574;48.506;-2.750;2023-04-16T10:22:10;3.78;;;1.52;;
75620;SDS011;64574;48.506;-2.750;2023-04-16T10:24:36;3.70;;;1.77;;
75620;SDS011;64574;48.506;-2.750;2023-04-16T10:27:02;3.03;;;1.23;;
75620;SDS011;64574;48.506;-2.750;2023-04-16T10:29:28;2.30;;;1.40;;
75620;SDS011;64574;48.506;-2.750;2023-04-16T10:31:55;2.60;;;1.40;;
75620;SDS011;64574;48.506;-2.750;2023-04-16T10:34:22;2.70;;;1.30;;
75620;SDS011;64574;48.506;-2.750;2023-04-16T10:36:52;2.15;;;1.20;;
75620;SDS011;64574;48.506;-2.750;2023-04-16T10:39:22;2.83;;;1.10;;
75620;SDS011;64574;48.506;-2.750;2023-04-16T10:41:49;3.55;;;1.25;;
75620;SDS011;64574;48.506;-2.750;2023-04-16T10:44:16;4.10;;;1.63;;
75620;SDS011;64574;48.506;-2.750;2023-04-16T10:46:43;3.65;;;1.05;;
75620;SDS011;64574;48.506;-2.750;2023-04-16T10:49:17;3.17;;;1.30;;
75620;SDS011;64574;48.506;-2.750;2023-04-16T10:51:53;4.05;;;1.67;;
75620;SDS011;64574;48.506;-2.750;2023-04-16T10:54:28;3.30;;;1.42;;
75620;SDS011;64574;48.506;-2.750;2023-04-16T10:59:21;2.83;;;1.30;;
75620;SDS011;64574;48.506;-2.750;2023-04-16T11:01:52;2.60;;;1.05;;
75620;SDS011;64574;48.506;-2.750;2023-04-16T11:12:40;2.30;;;1.13;;
75620;SDS011;64574;48.506;-2.750;2023-04-16T11:15:07;3.22;;;1.52;;
75620;SDS011;64574;48.506;-2.750;2023-04-16T11:20:17;2.85;;;1.50;;
75620;SDS011;64574;48.506;-2.750;2023-04-16T11:22:44;5.75;;;1.70;;
75620;SDS011;64574;48.506;-2.750;2023-04-16T11:25:11;2.40;;;1.00;;
75620;SDS011;64574;48.506;-2.750;2023-04-16T11:27:36;2.03;;;1.13;;
75620;SDS011;64574;48.506;-2.750;2023-04-16T11:30:06;1.50;;;1.00;;
75620;SDS011;64574;48.506;-2.750;2023-04-16T11:32:34;2.17;;;1.10;;
75620;SDS011;64574;48.506;-2.750;2023-04-16T11:35:03;3.83;;;1.35;;
75620;SDS011;64574;48.506;-2.750;2023-04-16T11:37:37;3.65;;;1.30;;
75620;SDS011;64574;48.506;-2.750;2023-04-16T11:40:04;2.85;;;1.15;;
75620;SDS011;64574;48.506;-2.750;2023-04-16T11:42:31;2.33;;;0.98;;
75620;SDS011;64574;48.506;-2.750;2023-04-16T11:44:58;3.60;;;0.93;;
75620;SDS011;64574;48.506;-2.750;2023-04-16T11:47:24;2.03;;;0.85;;
75620;SDS011;64574;48.506;-2.750;2023-04-16T11:49:51;1.60;;;0.90;;
75620;SDS011;64574;48.506;-2.750;2023-04-16T11:52:30;3.65;;;1.00;;
75620;SDS011;64574;48.506;-2.750;2023-04-16T11:54:57;3.83;;;1.10;;
75620;SDS011;64574;48.506;-2.750;2023-04-16T11:57:26;2.17;;;0.80;;
75620;SDS011;64574;48.506;-2.750;2023-04-16T11:59:53;1.65;;;0.98;;
75620;SDS011;64574;48.506;-2.750;2023-04-16T12:02:39;2.20;;;0.80;;
75620;SDS011;64574;48.506;-2.750;2023-04-16T12:05:29;1.65;;;0.73;;
75620;SDS011;64574;48.506;-2.750;2023-04-16T12:08:06;2.10;;;1.00;;
75620;SDS011;64574;48.506;-2.750;2023-04-16T12:10:34;1.63;;;0.80;;
75620;SDS011;64574;48.506;-2.750;2023-04-16T12:15:43;2.40;;;0.93;;
75620;SDS011;64574;48.506;-2.750;2023-04-16T12:18:10;1.50;;;0.50;;
75620;SDS011;64574;48.506;-2.750;2023-04-16T12:20:39;2.17;;;0.57;;
75620;SDS011;64574;48.506;-2.750;2023-04-16T12:23:08;1.33;;;0.70;;
75620;SDS011;64574;48.506;-2.750;2023-04-16T12:25:35;1.73;;;0.52;;
75620;SDS011;64574;48.506;-2.750;2023-04-16T12:28:01;2.10;;;1.30;;
75620;SDS011;64574;48.506;-2.750;2023-04-16T12:30:27;3.40;;;1.60;;
75620;SDS011;64574;48.506;-2.750;2023-04-16T12:35:40;3.28;;;1.50;;
75620;SDS011;64574;48.506;-2.750;2023-04-16T12:38:07;4.97;;;1.80;;
75620;SDS011;64574;48.506;-2.750;2023-04-16T12:40:33;4.30;;;1.92;;
75620;SDS011;64574;48.506;-2.750;2023-04-16T12:42:59;3.45;;;1.38;;
75620;SDS011;64574;48.506;-2.750;2023-04-16T12:45:25;4.07;;;1.65;;
75620;SDS011;64574;48.506;-2.750;2023-04-16T12:47:51;3.13;;;1.23;;
75620;SDS011;64574;48.506;-2.750;2023-04-16T12:50:16;4.93;;;1.55;;
75620;SDS011;64574;48.506;-2.750;2023-04-16T12:52:42;3.75;;;1.55;;
75620;SDS011;64574;48.506;-2.750;2023-04-16T12:55:08;4.90;;;1.65;;
75620;SDS011;64574;48.506;-2.750;2023-04-16T12:57:34;3.05;;;1.23;;
75620;SDS011;64574;48.506;-2.750;2023-04-16T13:00:00;3.95;;;1.10;;
75620;SDS011;64574;48.506;-2.750;2023-04-16T13:02:25;2.53;;;1.20;;
75620;SDS011;64574;48.506;-2.750;2023-04-16T13:04:52;2.90;;;1.90;;
75620;SDS011;64574;48.506;-2.750;2023-04-16T13:07:18;4.53;;;1.30;;
75620;SDS011;64574;48.506;-2.750;2023-04-16T13:09:45;3.58;;;1.40;;
75620;SDS011;64574;48.506;-2.750;2023-04-16T13:12:11;3.92;;;1.70;;
75620;SDS011;64574;48.506;-2.750;2023-04-16T13:14:37;4.72;;;1.38;;
75620;SDS011;64574;48.506;-2.750;2023-04-16T13:17:02;4.40;;;1.58;;
75620;SDS011;64574;48.506;-2.750;2023-04-16T13:19:31;2.72;;;1.10;;
75620;SDS011;64574;48.506;-2.750;2023-04-16T13:21:57;3.58;;;1.50;;
75620;SDS011;64574;48.506;-2.750;2023-04-16T13:24:23;2.85;;;1.00;;
75620;SDS011;64574;48.506;-2.750;2023-04-16T13:26:49;4.50;;;1.30;;
75620;SDS011;64574;48.506;-2.750;2023-04-16T13:29:16;2.67;;;1.40;;
75620;SDS011;64574;48.506;-2.750;2023-04-16T13:31:41;2.10;;;1.20;;
75620;SDS011;64574;48.506;-2.750;2023-04-16T13:34:07;2.10;;;1.10;;
75620;SDS011;64574;48.506;-2.750;2023-04-16T13:36:32;2.60;;;1.20;;
75620;SDS011;64574;48.506;-2.750;2023-04-16T13:38:59;2.28;;;1.10;;
75620;SDS011;64574;48.506;-2.750;2023-04-16T13:41:25;2.95;;;1.00;;
75620;SDS011;64574;48.506;-2.750;2023-04-16T13:43:51;1.77;;;0.98;;
75620;SDS011;64574;48.506;-2.750;2023-04-16T13:46:17;2.50;;;0.88;;
75620;SDS011;64574;48.506;-2.750;2023-04-16T13:48:43;2.05;;;1.00;;
75620;SDS011;64574;48.506;-2.750;2023-04-16T13:51:10;1.85;;;0.85;;
75620;SDS011;64574;48.506;-2.750;2023-04-16T13:53:35;1.88;;;1.10;;
75620;SDS011;64574;48.506;-2.750;2023-04-16T13:56:01;2.17;;;0.68;;
75620;SDS011;64574;48.506;-2.750;2023-04-16T13:58:27;2.63;;;1.00;;
75620;SDS011;64574;48.506;-2.750;2023-04-16T14:00:53;2.67;;;1.20;;
75620;SDS011;64574;48.506;-2.750;2023-04-16T14:03:19;3.55;;;1.45;;
75620;SDS011;64574;48.506;-2.750;2023-04-16T14:05:44;3.03;;;1.08;;
75620;SDS011;64574;48.506;-2.750;2023-04-16T14:08:10;3.33;;;1.13;;
75620;SDS011;64574;48.506;-2.750;2023-04-16T14:10:38;2.70;;;0.93;;
75620;SDS011;64574;48.506;-2.750;2023-04-16T14:13:04;3.15;;;0.95;;
75620;SDS011;64574;48.506;-2.750;2023-04-16T14:15:30;2.83;;;1.00;;
75620;SDS011;64574;48.506;-2.750;2023-04-16T14:17:55;2.60;;;0.90;;
75620;SDS011;64574;48.506;-2.750;2023-04-16T14:20:21;4.43;;;1.00;;
75620;SDS011;64574;48.506;-2.750;2023-04-16T14:22:47;4.70;;;1.23;;
75620;SDS011;64574;48.506;-2.750;2023-04-16T14:25:12;3.72;;;1.10;;
75620;SDS011;64574;48.506;-2.750;2023-04-16T14:27:38;2.40;;;1.20;;
75620;SDS011;64574;48.506;-2.750;2023-04-16T14:30:05;2.72;;;1.00;;
75620;SDS011;64574;48.506;-2.750;2023-04-16T14:32:31;2.28;;;1.30;;
75620;SDS011;64574;48.506;-2.750;2023-04-16T14:34:57;3.03;;;1.70;;
75620;SDS011;64574;48.506;-2.750;2023-04-16T14:37:22;3.50;;;1.55;;
75620;SDS011;64574;48.506;-2.750;2023-04-16T14:39:48;4.20;;;1.70;;
75620;SDS011;64574;48.506;-2.750;2023-04-16T14:42:14;3.58;;;1.77;;
75620;SDS011;64574;48.506;-2.750;2023-04-16T14:44:40;2.92;;;1.48;;
75620;SDS011;64574;48.506;-2.750;2023-04-16T14:47:06;5.38;;;1.77;;
75620;SDS011;64574;48.506;-2.750;2023-04-16T14:49:32;2.70;;;1.20;;
75620;SDS011;64574;48.506;-2.750;2023-04-16T14:51:59;4.95;;;1.70;;
75620;SDS011;64574;48.506;-2.750;2023-04-16T14:54:29;3.63;;;1.60;;
75620;SDS011;64574;48.506;-2.750;2023-04-16T14:56:57;5.65;;;1.48;;
75620;SDS011;64574;48.506;-2.750;2023-04-16T14:59:22;2.90;;;1.60;;